sensor_id;sensor_type;location;lat;lon;timestamp;P1;durP1;ratioP1;P2;durP2;ratioP2
51578;SDS011;47998;53.242;6.386;2023-06-05T00:01:35;6.68;;;4.30;;
51578;SDS011;47998;53.242;6.386;2023-06-05T00:04:01;5.63;;;3.92;;
51578;SDS011;47998;53.242;6.386;2023-06-05T00:06:28;9.70;;;5.18;;
51578;SDS011;47998;53.242;6.386;2023-06-05T00:08:54;6.82;;;4.03;;
51578;SDS011;47998;53.242;6.386;2023-06-05T00:11:20;7.00;;;4.38;;
51578;SDS011;47998;53.242;6.386;2023-06-05T00:13:46;6.20;;;4.22;;
51578;SDS011;47998;53.242;6.386;2023-06-05T00:16:13;4.45;;;3.60;;
51578;SDS011;47998;53.242;6.386;2023-06-05T00:18:38;5.57;;;3.42;;
51578;SDS011;47998;53.242;6.386;2023-06-05T00:21:04;5.63;;;3.38;;
51578;SDS011;47998;53.242;6.386;2023-06-05T00:23:30;7.35;;;3.28;;
51578;SDS011;47998;53.242;6.386;2023-06-05T00:25:56;4.07;;;3.38;;
51578;SDS011;47998;53.242;6.386;2023-06-05T00:28:22;5.32;;;2.90;;
51578;SDS011;47998;53.242;6.386;2023-06-05T00:30:49;6.13;;;3.22;;
51578;SDS011;47998;53.242;6.386;2023-06-05T00:33:15;6.03;;;3.05;;
51578;SDS011;47998;53.242;6.386;2023-06-05T00:35:40;6.22;;;3.30;;
51578;SDS011;47998;53.242;6.386;2023-06-05T00:38:06;4.63;;;2.70;;
51578;SDS011;47998;53.242;6.386;2023-06-05T00:40:32;6.43;;;3.03;;
51578;SDS011;47998;53.242;6.386;2023-06-05T00:42:58;4.07;;;2.75;;
51578;SDS011;47998;53.242;6.386;2023-06-05T00:45:24;6.32;;;3.67;;
51578;SDS011;47998;53.242;6.386;2023-06-05T00:47:49;4.40;;;3.00;;
51578;SDS011;47998;53.242;6.386;2023-06-05T00:50:15;7.90;;;4.10;;
51578;SDS011;47998;53.242;6.386;2023-06-05T00:52:42;5.78;;;2.92;;
51578;SDS011;47998;53.242;6.386;2023-06-05T00:55:10;4.20;;;2.22;;
51578;SDS011;47998;53.242;6.386;2023-06-05T00:57:37;5.25;;;2.50;;
51578;SDS011;47998;53.242;6.386;2023-06-05T01:00:04;3.10;;;2.38;;
51578;SDS011;47998;53.242;6.386;2023-06-05T01:02:34;8.38;;;3.33;;
51578;SDS011;47998;53.242;6.386;2023-06-05T01:05:02;4.13;;;2.35;;
51578;SDS011;47998;53.242;6.386;2023-06-05T01:07:28;6.88;;;3.13;;
51578;SDS011;47998;53.242;6.386;2023-06-05T01:10:01;5.80;;;3.58;;
51578;SDS011;47998;53.242;6.386;2023-06-05T01:15:19;4.75;;;3.50;;
51578;SDS011;47998;53.242;6.386;2023-06-05T01:17:53;5.45;;;3.38;;
51578;SDS011;47998;53.242;6.386;2023-06-05T01:20:31;6.93;;;4.00;;
51578;SDS011;47998;53.242;6.386;2023-06-05T01:22:58;5.13;;;3.75;;
51578;SDS011;47998;53.242;6.386;2023-06-05T01:25:24;7.30;;;3.67;;
51578;SDS011;47998;53.242;6.386;2023-06-05T01:28:00;6.63;;;5.22;;
51578;SDS011;47998;53.242;6.386;2023-06-05T01:33:32;9.35;;;5.30;;
51578;SDS011;47998;53.242;6.386;2023-06-05T01:36:13;7.75;;;5.13;;
51578;SDS011;47998;53.242;6.386;2023-06-05T01:38:40;7.65;;;5.38;;
51578;SDS011;47998;53.242;6.386;2023-06-05T01:41:08;6.13;;;4.95;;
51578;SDS011;47998;53.242;6.386;2023-06-05T01:43:36;7.90;;;5.53;;
51578;SDS011;47998;53.242;6.386;2023-06-05T01:46:03;10.60;;;5.90;;
51578;SDS011;47998;53.242;6.386;2023-06-05T01:48:32;6.68;;;5.70;;
51578;SDS011;47998;53.242;6.386;2023-06-05T01:51:01;8.52;;;5.97;;
51578;SDS011;47998;53.242;6.386;2023-06-05T01:53:27;8.18;;;5.88;;
51578;SDS011;47998;53.242;6.386;2023-06-05T01:55:54;8.30;;;6.68;;
51578;SDS011;47998;53.242;6.386;2023-06-05T01:58:26;7.55;;;5.97;;
51578;SDS011;47998;53.242;6.386;2023-06-05T02:00:52;9.35;;;5.50;;
51578;SDS011;47998;53.242;6.386;2023-06-05T02:03:19;6.70;;;5.18;;
51578;SDS011;47998;53.242;6.386;2023-06-05T02:05:45;6.25;;;4.95;;
51578;SDS011;47998;53.242;6.386;2023-06-05T02:08:12;7.72;;;4.75;;
51578;SDS011;47998;53.242;6.386;2023-06-05T02:10:38;5.72;;;4.40;;
51578;SDS011;47998;53.242;6.386;2023-06-05T02:13:09;8.88;;;4.75;;
51578;SDS011;47998;53.242;6.386;2023-06-05T02:15:35;6.93;;;4.40;;
51578;SDS011;47998;53.242;6.386;2023-06-05T02:18:02;7.38;;;3.78;;
51578;SDS011;47998;53.242;6.386;2023-06-05T02:20:29;5.75;;;4.10;;
51578;SDS011;47998;53.242;6.386;2023-06-05T02:22:56;5.80;;;3.85;;
51578;SDS011;47998;53.242;6.386;2023-06-05T02:25:22;7.22;;;4.53;;
51578;SDS011;47998;53.242;6.386;2023-06-05T02:27:52;6.25;;;3.35;;
51578;SDS011;47998;53.242;6.386;2023-06-05T02:30:21;6.15;;;3.85;;
51578;SDS011;47998;53.242;6.386;2023-06-05T02:32:47;5.25;;;3.97;;
51578;SDS011;47998;53.242;6.386;2023-06-05T02:35:21;5.95;;;3.70;;
51578;SDS011;47998;53.242;6.386;2023-06-05T02:37:48;6.15;;;4.43;;
51578;SDS011;47998;53.242;6.386;2023-06-05T02:40:13;5.95;;;4.03;;
51578;SDS011;47998;53.242;6.386;2023-06-05T02:42:39;4.57;;;3.88;;
51578;SDS011;47998;53.242;6.386;2023-06-05T02:45:06;8.10;;;4.10;;
51578;SDS011;47998;53.242;6.386;2023-06-05T02:47:33;7.80;;;4.35;;
51578;SDS011;47998;53.242;6.386;2023-06-05T02:50:00;6.95;;;3.53;;
51578;SDS011;47998;53.242;6.386;2023-06-05T02:52:26;5.63;;;2.67;;
51578;SDS011;47998;53.242;6.386;2023-06-05T02:54:53;3.83;;;2.60;;
51578;SDS011;47998;53.242;6.386;2023-06-05T02:57:19;4.88;;;3.03;;
51578;SDS011;47998;53.242;6.386;2023-06-05T02:59:45;3.22;;;2.50;;
51578;SDS011;47998;53.242;6.386;2023-06-05T03:02:11;4.40;;;2.33;;
51578;SDS011;47998;53.242;6.386;2023-06-05T03:04:37;4.20;;;2.10;;
51578;SDS011;47998;53.242;6.386;2023-06-05T03:07:05;2.78;;;1.90;;
51578;SDS011;47998;53.242;6.386;2023-06-05T03:09:33;4.88;;;2.65;;
51578;SDS011;47998;53.242;6.386;2023-06-05T03:11:58;2.85;;;2.28;;
51578;SDS011;47998;53.242;6.386;2023-06-05T03:14:25;6.38;;;2.83;;
51578;SDS011;47998;53.242;6.386;2023-06-05T03:16:53;4.07;;;2.65;;
51578;SDS011;47998;53.242;6.386;2023-06-05T03:19:22;5.30;;;2.47;;
51578;SDS011;47998;53.242;6.386;2023-06-05T03:21:47;4.68;;;2.83;;
51578;SDS011;47998;53.242;6.386;2023-06-05T03:24:15;4.10;;;2.42;;
51578;SDS011;47998;53.242;6.386;2023-06-05T03:26:41;5.18;;;2.95;;
51578;SDS011;47998;53.242;6.386;2023-06-05T03:29:07;4.07;;;3.20;;
51578;SDS011;47998;53.242;6.386;2023-06-05T03:31:35;4.68;;;3.05;;
51578;SDS011;47998;53.242;6.386;2023-06-05T03:34:01;4.75;;;3.17;;
51578;SDS011;47998;53.242;6.386;2023-06-05T03:36:28;4.07;;;3.10;;
51578;SDS011;47998;53.242;6.386;2023-06-05T03:38:55;5.28;;;3.50;;
51578;SDS011;47998;53.242;6.386;2023-06-05T03:41:24;5.35;;;3.60;;
51578;SDS011;47998;53.242;6.386;2023-06-05T03:43:51;4.65;;;3.40;;
51578;SDS011;47998;53.242;6.386;2023-06-05T03:46:17;4.75;;;3.22;;
51578;SDS011;47998;53.242;6.386;2023-06-05T03:48:44;3.38;;;3.08;;
51578;SDS011;47998;53.242;6.386;2023-06-05T03:51:10;3.80;;;3.22;;
51578;SDS011;47998;53.242;6.386;2023-06-05T03:53:36;5.85;;;3.33;;
51578;SDS011;47998;53.242;6.386;2023-06-05T03:56:08;3.90;;;3.50;;
51578;SDS011;47998;53.242;6.386;2023-06-05T03:58:34;5.38;;;3.38;;
51578;SDS011;47998;53.242;6.386;2023-06-05T04:01:00;4.47;;;3.30;;
51578;SDS011;47998;53.242;6.386;2023-06-05T04:03:25;4.72;;;3.00;;
51578;SDS011;47998;53.242;6.386;2023-06-05T04:05:52;6.57;;;2.90;;
51578;SDS011;47998;53.242;6.386;2023-06-05T04:08:18;5.60;;;3.38;;
51578;SDS011;47998;53.242;6.386;2023-06-05T04:10:44;5.35;;;3.13;;
51578;SDS011;47998;53.242;6.386;2023-06-05T04:13:10;4.70;;;3.40;;
51578;SDS011;47998;53.242;6.386;2023-06-05T04:15:35;4.88;;;2.42;;
51578;SDS011;47998;53.242;6.386;2023-06-05T04:18:02;4.97;;;3.13;;
51578;SDS011;47998;53.242;6.386;2023-06-05T04:20:28;3.53;;;3.20;;
51578;SDS011;47998;53.242;6.386;2023-06-05T04:22:54;6.85;;;2.95;;
51578;SDS011;47998;53.242;6.386;2023-06-05T04:25:20;3.63;;;2.63;;
51578;SDS011;47998;53.242;6.386;2023-06-05T04:27:46;4.82;;;2.80;;
51578;SDS011;47998;53.242;6.386;2023-06-05T04:30:15;3.88;;;2.95;;
51578;SDS011;47998;53.242;6.386;2023-06-05T04:32:41;3.83;;;2.75;;
51578;SDS011;47998;53.242;6.386;2023-06-05T04:35:10;6.10;;;2.83;;
51578;SDS011;47998;53.242;6.386;2023-06-05T04:37:36;2.60;;;2.40;;
51578;SDS011;47998;53.242;6.386;2023-06-05T04:40:02;3.53;;;2.55;;
51578;SDS011;47998;53.242;6.386;2023-06-05T04:42:35;4.80;;;2.28;;
51578;SDS011;47998;53.242;6.386;2023-06-05T04:45:03;3.72;;;2.25;;
51578;SDS011;47998;53.242;6.386;2023-06-05T04:47:30;3.45;;;2.50;;
51578;SDS011;47998;53.242;6.386;2023-06-05T04:50:00;3.03;;;1.95;;
51578;SDS011;47998;53.242;6.386;2023-06-05T04:52:30;2.42;;;1.73;;
51578;SDS011;47998;53.242;6.386;2023-06-05T04:54:58;2.83;;;1.70;;
51578;SDS011;47998;53.242;6.386;2023-06-05T04:57:26;3.35;;;1.95;;
51578;SDS011;47998;53.242;6.386;2023-06-05T04:59:53;1.95;;;1.33;;
51578;SDS011;47998;53.242;6.386;2023-06-05T05:02:19;2.15;;;1.50;;
51578;SDS011;47998;53.242;6.386;2023-06-05T05:04:46;3.38;;;1.08;;
51578;SDS011;47998;53.242;6.386;2023-06-05T05:07:11;2.22;;;1.30;;
51578;SDS011;47998;53.242;6.386;2023-06-05T05:09:42;1.75;;;1.20;;
51578;SDS011;47998;53.242;6.386;2023-06-05T05:12:08;3.33;;;1.58;;
51578;SDS011;47998;53.242;6.386;2023-06-05T05:14:35;6.22;;;1.30;;
51578;SDS011;47998;53.242;6.386;2023-06-05T05:17:01;2.58;;;1.60;;
51578;SDS011;47998;53.242;6.386;2023-06-05T05:19:27;2.30;;;1.40;;
51578;SDS011;47998;53.242;6.386;2023-06-05T05:21:54;2.28;;;1.33;;
51578;SDS011;47998;53.242;6.386;2023-06-05T05:24:20;2.53;;;1.50;;
51578;SDS011;47998;53.242;6.386;2023-06-05T05:26:46;5.13;;;2.05;;
51578;SDS011;47998;53.242;6.386;2023-06-05T05:29:11;2.70;;;1.50;;
51578;SDS011;47998;53.242;6.386;2023-06-05T05:31:37;4.35;;;1.60;;
51578;SDS011;47998;53.242;6.386;2023-06-05T05:34:03;3.38;;;1.48;;
51578;SDS011;47998;53.242;6.386;2023-06-05T05:36:28;1.38;;;1.15;;
51578;SDS011;47998;53.242;6.386;2023-06-05T05:38:54;2.97;;;1.55;;
51578;SDS011;47998;53.242;6.386;2023-06-05T05:41:20;2.88;;;1.60;;
51578;SDS011;47998;53.242;6.386;2023-06-05T05:43:47;3.70;;;1.55;;
51578;SDS011;47998;53.242;6.386;2023-06-05T05:46:13;3.40;;;1.45;;
51578;SDS011;47998;53.242;6.386;2023-06-05T05:48:39;2.15;;;1.35;;
51578;SDS011;47998;53.242;6.386;2023-06-05T05:51:05;2.50;;;1.52;;
51578;SDS011;47998;53.242;6.386;2023-06-05T05:53:31;3.28;;;2.83;;
51578;SDS011;47998;53.242;6.386;2023-06-05T05:55:57;2.47;;;1.63;;
51578;SDS011;47998;53.242;6.386;2023-06-05T05:58:23;1.30;;;1.00;;
51578;SDS011;47998;53.242;6.386;2023-06-05T06:00:49;2.47;;;1.30;;
51578;SDS011;47998;53.242;6.386;2023-06-05T06:03:16;2.75;;;1.48;;
51578;SDS011;47998;53.242;6.386;2023-06-05T06:05:42;3.65;;;1.70;;
51578;SDS011;47998;53.242;6.386;2023-06-05T06:08:09;2.35;;;1.38;;
51578;SDS011;47998;53.242;6.386;2023-06-05T06:10:36;1.50;;;1.35;;
51578;SDS011;47998;53.242;6.386;2023-06-05T06:13:02;4.47;;;1.50;;
51578;SDS011;47998;53.242;6.386;2023-06-05T06:15:29;5.40;;;1.92;;
51578;SDS011;47998;53.242;6.386;2023-06-05T06:17:55;3.35;;;1.85;;
51578;SDS011;47998;53.242;6.386;2023-06-05T06:20:21;2.50;;;1.98;;
51578;SDS011;47998;53.242;6.386;2023-06-05T06:22:48;2.42;;;1.40;;
51578;SDS011;47998;53.242;6.386;2023-06-05T06:25:14;3.38;;;1.50;;
51578;SDS011;47998;53.242;6.386;2023-06-05T06:27:41;1.75;;;1.38;;
51578;SDS011;47998;53.242;6.386;2023-06-05T06:30:10;2.90;;;1.80;;
51578;SDS011;47998;53.242;6.386;2023-06-05T06:32:36;4.80;;;1.80;;
51578;SDS011;47998;53.242;6.386;2023-06-05T06:35:02;2.03;;;1.38;;
51578;SDS011;47998;53.242;6.386;2023-06-05T06:37:28;3.22;;;1.60;;
51578;SDS011;47998;53.242;6.386;2023-06-05T06:39:54;2.25;;;1.35;;
51578;SDS011;47998;53.242;6.386;2023-06-05T06:42:20;2.05;;;1.15;;
51578;SDS011;47998;53.242;6.386;2023-06-05T06:44:46;3.53;;;1.73;;
51578;SDS011;47998;53.242;6.386;2023-06-05T06:47:11;2.58;;;1.92;;
51578;SDS011;47998;53.242;6.386;2023-06-05T06:49:37;3.17;;;1.63;;
51578;SDS011;47998;53.242;6.386;2023-06-05T06:52:04;4.43;;;1.67;;
51578;SDS011;47998;53.242;6.386;2023-06-05T06:54:31;5.05;;;2.83;;
51578;SDS011;47998;53.242;6.386;2023-06-05T06:56:57;6.78;;;1.90;;
51578;SDS011;47998;53.242;6.386;2023-06-05T06:59:24;5.50;;;2.38;;
51578;SDS011;47998;53.242;6.386;2023-06-05T07:04:38;3.05;;;2.00;;
51578;SDS011;47998;53.242;6.386;2023-06-05T07:07:16;6.68;;;2.45;;
51578;SDS011;47998;53.242;6.386;2023-06-05T07:09:45;4.15;;;2.08;;
51578;SDS011;47998;53.242;6.386;2023-06-05T07:12:14;3.65;;;1.88;;
51578;SDS011;47998;53.242;6.386;2023-06-05T07:14:41;2.92;;;1.77;;
51578;SDS011;47998;53.242;6.386;2023-06-05T07:17:07;5.20;;;1.98;;
51578;SDS011;47998;53.242;6.386;2023-06-05T07:19:33;2.47;;;1.80;;
51578;SDS011;47998;53.242;6.386;2023-06-05T07:22:01;4.18;;;1.70;;
51578;SDS011;47998;53.242;6.386;2023-06-05T07:24:29;3.78;;;1.92;;
51578;SDS011;47998;53.242;6.386;2023-06-05T07:26:56;2.85;;;1.63;;
51578;SDS011;47998;53.242;6.386;2023-06-05T07:29:24;2.88;;;1.80;;
51578;SDS011;47998;53.242;6.386;2023-06-05T07:31:51;2.25;;;1.50;;
51578;SDS011;47998;53.242;6.386;2023-06-05T07:34:18;2.28;;;1.55;;
51578;SDS011;47998;53.242;6.386;2023-06-05T07:36:45;3.20;;;1.90;;
51578;SDS011;47998;53.242;6.386;2023-06-05T07:39:12;4.82;;;1.95;;
51578;SDS011;47998;53.242;6.386;2023-06-05T07:41:38;3.67;;;1.77;;
51578;SDS011;47998;53.242;6.386;2023-06-05T07:44:08;2.53;;;1.73;;
51578;SDS011;47998;53.242;6.386;2023-06-05T07:46:35;2.85;;;2.00;;
51578;SDS011;47998;53.242;6.386;2023-06-05T07:49:01;2.78;;;1.40;;
51578;SDS011;47998;53.242;6.386;2023-06-05T07:51:26;1.98;;;1.42;;
51578;SDS011;47998;53.242;6.386;2023-06-05T07:53:52;4.47;;;1.75;;
51578;SDS011;47998;53.242;6.386;2023-06-05T07:56:18;1.95;;;1.33;;
51578;SDS011;47998;53.242;6.386;2023-06-05T07:58:44;5.22;;;1.63;;
51578;SDS011;47998;53.242;6.386;2023-06-05T08:01:10;3.38;;;1.63;;
51578;SDS011;47998;53.242;6.386;2023-06-05T08:03:37;3.83;;;1.38;;
51578;SDS011;47998;53.242;6.386;2023-06-05T08:06:03;4.60;;;1.45;;
51578;SDS011;47998;53.242;6.386;2023-06-05T08:08:29;2.25;;;1.20;;
51578;SDS011;47998;53.242;6.386;2023-06-05T08:10:56;3.03;;;1.70;;
51578;SDS011;47998;53.242;6.386;2023-06-05T08:13:21;2.83;;;1.95;;
51578;SDS011;47998;53.242;6.386;2023-06-05T08:15:47;2.55;;;1.75;;
51578;SDS011;47998;53.242;6.386;2023-06-05T08:18:14;2.13;;;1.70;;
51578;SDS011;47998;53.242;6.386;2023-06-05T08:20:41;1.58;;;1.23;;
51578;SDS011;47998;53.242;6.386;2023-06-05T08:23:06;1.83;;;1.38;;
51578;SDS011;47998;53.242;6.386;2023-06-05T08:25:32;3.20;;;1.48;;
51578;SDS011;47998;53.242;6.386;2023-06-05T08:27:58;2.80;;;1.52;;
51578;SDS011;47998;53.242;6.386;2023-06-05T08:30:24;3.17;;;1.70;;
51578;SDS011;47998;53.242;6.386;2023-06-05T08:32:49;4.10;;;2.10;;
51578;SDS011;47998;53.242;6.386;2023-06-05T08:35:15;3.42;;;1.50;;
51578;SDS011;47998;53.242;6.386;2023-06-05T08:37:41;2.55;;;1.60;;
51578;SDS011;47998;53.242;6.386;2023-06-05T08:40:07;1.95;;;1.48;;
51578;SDS011;47998;53.242;6.386;2023-06-05T08:42:39;3.53;;;1.77;;
51578;SDS011;47998;53.242;6.386;2023-06-05T08:45:08;2.78;;;1.83;;
51578;SDS011;47998;53.242;6.386;2023-06-05T08:47:37;3.20;;;2.33;;
51578;SDS011;47998;53.242;6.386;2023-06-05T08:50:06;2.65;;;1.77;;
51578;SDS011;47998;53.242;6.386;2023-06-05T08:52:33;2.00;;;1.38;;
51578;SDS011;47998;53.242;6.386;2023-06-05T08:55:05;3.90;;;2.25;;
51578;SDS011;47998;53.242;6.386;2023-06-05T08:57:33;2.53;;;2.03;;
51578;SDS011;47998;53.242;6.386;2023-06-05T09:00:02;3.28;;;1.80;;
51578;SDS011;47998;53.242;6.386;2023-06-05T09:02:35;2.55;;;2.00;;
51578;SDS011;47998;53.242;6.386;2023-06-05T09:05:02;1.95;;;1.55;;
51578;SDS011;47998;53.242;6.386;2023-06-05T09:07:28;3.15;;;2.08;;
51578;SDS011;47998;53.242;6.386;2023-06-05T09:09:56;3.00;;;1.58;;
51578;SDS011;47998;53.242;6.386;2023-06-05T09:12:22;3.42;;;1.48;;
51578;SDS011;47998;53.242;6.386;2023-06-05T09:14:49;3.38;;;1.52;;
51578;SDS011;47998;53.242;6.386;2023-06-05T09:17:15;2.17;;;1.55;;
51578;SDS011;47998;53.242;6.386;2023-06-05T09:19:42;1.63;;;1.33;;
51578;SDS011;47998;53.242;6.386;2023-06-05T09:22:10;2.45;;;1.40;;
51578;SDS011;47998;53.242;6.386;2023-06-05T09:24:38;2.58;;;1.50;;
51578;SDS011;47998;53.242;6.386;2023-06-05T09:27:11;2.67;;;1.70;;
51578;SDS011;47998;53.242;6.386;2023-06-05T09:29:42;1.92;;;1.35;;
51578;SDS011;47998;53.242;6.386;2023-06-05T09:32:17;2.28;;;1.30;;
51578;SDS011;47998;53.242;6.386;2023-06-05T09:34:44;5.30;;;1.13;;
51578;SDS011;47998;53.242;6.386;2023-06-05T09:37:11;1.50;;;1.13;;
51578;SDS011;47998;53.242;6.386;2023-06-05T09:39:41;4.20;;;1.30;;
51578;SDS011;47998;53.242;6.386;2023-06-05T09:42:11;2.28;;;1.70;;
51578;SDS011;47998;53.242;6.386;2023-06-05T09:44:37;4.72;;;2.25;;
51578;SDS011;47998;53.242;6.386;2023-06-05T09:47:04;2.75;;;1.40;;
51578;SDS011;47998;53.242;6.386;2023-06-05T09:49:33;1.63;;;1.10;;
51578;SDS011;47998;53.242;6.386;2023-06-05T09:52:13;3.25;;;1.50;;
51578;SDS011;47998;53.242;6.386;2023-06-05T09:54:40;2.83;;;1.38;;
51578;SDS011;47998;53.242;6.386;2023-06-05T09:57:10;4.07;;;1.50;;
51578;SDS011;47998;53.242;6.386;2023-06-05T09:59:58;3.15;;;1.40;;
51578;SDS011;47998;53.242;6.386;2023-06-05T10:02:31;1.88;;;1.60;;
51578;SDS011;47998;53.242;6.386;2023-06-05T10:05:02;2.22;;;1.55;;
51578;SDS011;47998;53.242;6.386;2023-06-05T10:07:32;2.53;;;1.48;;
51578;SDS011;47998;53.242;6.386;2023-06-05T10:10:00;3.47;;;1.60;;
51578;SDS011;47998;53.242;6.386;2023-06-05T10:12:27;3.33;;;1.83;;
51578;SDS011;47998;53.242;6.386;2023-06-05T10:14:56;3.85;;;1.70;;
51578;SDS011;47998;53.242;6.386;2023-06-05T10:17:23;2.85;;;1.25;;
51578;SDS011;47998;53.242;6.386;2023-06-05T10:19:49;2.42;;;1.17;;
51578;SDS011;47998;53.242;6.386;2023-06-05T10:22:19;2.42;;;1.30;;
51578;SDS011;47998;53.242;6.386;2023-06-05T10:24:46;2.63;;;1.63;;
51578;SDS011;47998;53.242;6.386;2023-06-05T10:27:20;2.67;;;1.75;;
51578;SDS011;47998;53.242;6.386;2023-06-05T10:32:38;2.78;;;1.40;;
51578;SDS011;47998;53.242;6.386;2023-06-05T10:40:25;3.15;;;1.50;;
51578;SDS011;47998;53.242;6.386;2023-06-05T10:42:52;2.28;;;1.33;;
51578;SDS011;47998;53.242;6.386;2023-06-05T10:45:29;2.28;;;1.60;;
51578;SDS011;47998;53.242;6.386;2023-06-05T10:47:56;2.15;;;1.33;;
51578;SDS011;47998;53.242;6.386;2023-06-05T10:50:22;1.45;;;1.35;;
51578;SDS011;47998;53.242;6.386;2023-06-05T10:52:52;3.92;;;1.67;;
51578;SDS011;47998;53.242;6.386;2023-06-05T10:55:20;1.75;;;1.40;;
51578;SDS011;47998;53.242;6.386;2023-06-05T11:00:26;1.75;;;1.40;;
51578;SDS011;47998;53.242;6.386;2023-06-05T11:02:53;1.50;;;1.40;;
51578;SDS011;47998;53.242;6.386;2023-06-05T11:05:19;3.53;;;1.33;;
51578;SDS011;47998;53.242;6.386;2023-06-05T11:07:45;2.05;;;1.25;;
51578;SDS011;47998;53.242;6.386;2023-06-05T11:10:15;3.03;;;1.42;;
51578;SDS011;47998;53.242;6.386;2023-06-05T11:15:11;2.80;;;1.80;;
51578;SDS011;47998;53.242;6.386;2023-06-05T11:17:46;2.17;;;1.65;;
51578;SDS011;47998;53.242;6.386;2023-06-05T11:27:58;1.92;;;1.40;;
51578;SDS011;47998;53.242;6.386;2023-06-05T11:30:30;5.57;;;1.80;;
51578;SDS011;47998;53.242;6.386;2023-06-05T11:35:37;3.63;;;1.70;;
51578;SDS011;47998;53.242;6.386;2023-06-05T11:40:34;2.33;;;1.83;;
51578;SDS011;47998;53.242;6.386;2023-06-05T11:43:04;1.90;;;1.40;;
51578;SDS011;47998;53.242;6.386;2023-06-05T11:45:32;1.60;;;1.50;;
51578;SDS011;47998;53.242;6.386;2023-06-05T11:48:09;3.20;;;1.88;;
51578;SDS011;47998;53.242;6.386;2023-06-05T11:50:39;3.40;;;1.70;;
51578;SDS011;47998;53.242;6.386;2023-06-05T11:53:16;3.05;;;2.15;;
51578;SDS011;47998;53.242;6.386;2023-06-05T11:55:43;3.13;;;2.10;;
51578;SDS011;47998;53.242;6.386;2023-06-05T11:58:24;3.70;;;1.80;;
51578;SDS011;47998;53.242;6.386;2023-06-05T12:01:06;2.63;;;1.65;;
51578;SDS011;47998;53.242;6.386;2023-06-05T12:03:45;2.45;;;1.95;;
51578;SDS011;47998;53.242;6.386;2023-06-05T12:06:11;4.03;;;1.58;;
51578;SDS011;47998;53.242;6.386;2023-06-05T12:08:38;2.42;;;1.60;;
51578;SDS011;47998;53.242;6.386;2023-06-05T12:11:26;1.98;;;1.77;;
51578;SDS011;47998;53.242;6.386;2023-06-05T12:13:53;2.22;;;1.52;;
51578;SDS011;47998;53.242;6.386;2023-06-05T12:16:29;1.77;;;1.50;;
51578;SDS011;47998;53.242;6.386;2023-06-05T12:18:59;2.45;;;1.50;;
51578;SDS011;47998;53.242;6.386;2023-06-05T12:21:26;1.88;;;1.33;;
51578;SDS011;47998;53.242;6.386;2023-06-05T12:24:02;2.17;;;1.42;;
51578;SDS011;47998;53.242;6.386;2023-06-05T12:26:29;1.95;;;1.30;;
51578;SDS011;47998;53.242;6.386;2023-06-05T12:29:12;3.97;;;1.38;;
51578;SDS011;47998;53.242;6.386;2023-06-05T12:31:38;3.17;;;1.60;;
51578;SDS011;47998;53.242;6.386;2023-06-05T12:34:04;2.15;;;1.70;;
51578;SDS011;47998;53.242;6.386;2023-06-05T12:36:31;3.05;;;1.75;;
51578;SDS011;47998;53.242;6.386;2023-06-05T12:39:11;3.35;;;1.90;;
51578;SDS011;47998;53.242;6.386;2023-06-05T12:41:37;3.08;;;2.03;;
51578;SDS011;47998;53.242;6.386;2023-06-05T12:44:04;4.85;;;2.10;;
51578;SDS011;47998;53.242;6.386;2023-06-05T12:46:32;4.10;;;2.60;;
51578;SDS011;47998;53.242;6.386;2023-06-05T12:48:58;4.53;;;2.83;;
51578;SDS011;47998;53.242;6.386;2023-06-05T12:51:25;3.70;;;2.40;;
51578;SDS011;47998;53.242;6.386;2023-06-05T12:53:52;3.08;;;2.17;;
51578;SDS011;47998;53.242;6.386;2023-06-05T12:56:19;4.18;;;3.00;;
51578;SDS011;47998;53.242;6.386;2023-06-05T12:58:50;4.43;;;2.95;;
51578;SDS011;47998;53.242;6.386;2023-06-05T13:01:16;5.35;;;3.00;;
51578;SDS011;47998;53.242;6.386;2023-06-05T13:03:44;4.63;;;3.17;;
51578;SDS011;47998;53.242;6.386;2023-06-05T13:06:10;5.07;;;3.20;;
51578;SDS011;47998;53.242;6.386;2023-06-05T13:08:36;4.00;;;2.90;;
51578;SDS011;47998;53.242;6.386;2023-06-05T13:11:02;4.03;;;3.40;;
51578;SDS011;47998;53.242;6.386;2023-06-05T13:13:27;3.65;;;2.65;;
51578;SDS011;47998;53.242;6.386;2023-06-05T13:15:54;3.42;;;3.03;;
51578;SDS011;47998;53.242;6.386;2023-06-05T13:18:19;5.50;;;3.50;;
51578;SDS011;47998;53.242;6.386;2023-06-05T13:20:45;4.32;;;3.13;;
51578;SDS011;47998;53.242;6.386;2023-06-05T13:23:13;3.72;;;2.92;;
51578;SDS011;47998;53.242;6.386;2023-06-05T13:25:39;3.70;;;3.10;;
51578;SDS011;47998;53.242;6.386;2023-06-05T13:28:05;5.80;;;3.17;;
51578;SDS011;47998;53.242;6.386;2023-06-05T13:30:32;4.22;;;2.95;;
51578;SDS011;47998;53.242;6.386;2023-06-05T13:32:59;4.63;;;3.50;;
51578;SDS011;47998;53.242;6.386;2023-06-05T13:35:25;4.53;;;3.03;;
51578;SDS011;47998;53.242;6.386;2023-06-05T13:37:51;3.65;;;3.28;;
51578;SDS011;47998;53.242;6.386;2023-06-05T13:40:17;3.72;;;3.28;;
51578;SDS011;47998;53.242;6.386;2023-06-05T13:42:43;5.60;;;3.58;;
51578;SDS011;47998;53.242;6.386;2023-06-05T13:45:09;4.75;;;4.03;;
51578;SDS011;47998;53.242;6.386;2023-06-05T13:47:35;6.05;;;3.40;;
51578;SDS011;47998;53.242;6.386;2023-06-05T13:50:01;4.45;;;3.10;;
51578;SDS011;47998;53.242;6.386;2023-06-05T13:52:28;5.28;;;3.58;;
51578;SDS011;47998;53.242;6.386;2023-06-05T13:54:54;4.18;;;2.88;;
51578;SDS011;47998;53.242;6.386;2023-06-05T13:57:20;4.97;;;3.50;;
51578;SDS011;47998;53.242;6.386;2023-06-05T13:59:45;5.47;;;3.08;;
51578;SDS011;47998;53.242;6.386;2023-06-05T14:02:11;3.45;;;2.75;;
51578;SDS011;47998;53.242;6.386;2023-06-05T14:04:37;4.22;;;3.45;;
51578;SDS011;47998;53.242;6.386;2023-06-05T14:07:05;5.45;;;2.67;;
51578;SDS011;47998;53.242;6.386;2023-06-05T14:09:31;4.07;;;3.38;;
51578;SDS011;47998;53.242;6.386;2023-06-05T14:11:57;6.65;;;3.60;;
51578;SDS011;47998;53.242;6.386;2023-06-05T14:14:24;6.63;;;4.28;;
51578;SDS011;47998;53.242;6.386;2023-06-05T14:16:50;4.63;;;2.88;;
51578;SDS011;47998;53.242;6.386;2023-06-05T14:19:16;5.88;;;3.80;;
51578;SDS011;47998;53.242;6.386;2023-06-05T14:21:42;4.18;;;3.67;;
51578;SDS011;47998;53.242;6.386;2023-06-05T14:24:08;5.60;;;3.28;;
51578;SDS011;47998;53.242;6.386;2023-06-05T14:26:35;5.03;;;3.10;;
51578;SDS011;47998;53.242;6.386;2023-06-05T14:29:02;9.57;;;3.85;;
51578;SDS011;47998;53.242;6.386;2023-06-05T14:31:30;5.18;;;3.17;;
51578;SDS011;47998;53.242;6.386;2023-06-05T14:33:56;6.22;;;3.00;;
51578;SDS011;47998;53.242;6.386;2023-06-05T14:36:21;5.03;;;3.35;;
51578;SDS011;47998;53.242;6.386;2023-06-05T14:38:47;5.28;;;4.13;;
51578;SDS011;47998;53.242;6.386;2023-06-05T14:41:13;3.65;;;3.15;;
51578;SDS011;47998;53.242;6.386;2023-06-05T14:43:39;4.82;;;2.88;;
51578;SDS011;47998;53.242;6.386;2023-06-05T14:46:07;4.45;;;2.72;;
51578;SDS011;47998;53.242;6.386;2023-06-05T14:48:32;5.43;;;3.00;;
51578;SDS011;47998;53.242;6.386;2023-06-05T14:50:58;5.03;;;3.20;;
51578;SDS011;47998;53.242;6.386;2023-06-05T14:53:24;4.68;;;3.20;;
51578;SDS011;47998;53.242;6.386;2023-06-05T14:55:50;7.00;;;3.92;;
51578;SDS011;47998;53.242;6.386;2023-06-05T14:58:16;5.97;;;3.35;;
51578;SDS011;47998;53.242;6.386;2023-06-05T15:00:41;7.57;;;3.50;;
51578;SDS011;47998;53.242;6.386;2023-06-05T15:03:07;5.25;;;3.40;;
51578;SDS011;47998;53.242;6.386;2023-06-05T15:05:33;4.53;;;3.28;;
51578;SDS011;47998;53.242;6.386;2023-06-05T15:07:59;7.32;;;4.47;;
51578;SDS011;47998;53.242;6.386;2023-06-05T15:10:25;7.63;;;4.57;;
51578;SDS011;47998;53.242;6.386;2023-06-05T15:12:52;6.78;;;4.35;;
51578;SDS011;47998;53.242;6.386;2023-06-05T15:15:23;7.25;;;4.65;;
51578;SDS011;47998;53.242;6.386;2023-06-05T15:17:49;8.10;;;4.63;;
51578;SDS011;47998;53.242;6.386;2023-06-05T15:20:18;6.38;;;4.03;;
51578;SDS011;47998;53.242;6.386;2023-06-05T15:22:44;6.97;;;4.85;;
51578;SDS011;47998;53.242;6.386;2023-06-05T15:25:10;6.47;;;4.07;;